Another Hard Day at the Office Weather Stats

 
 
 

High monthly outside Temperature, 29.0 , C
Low monthly outside Temperature, 11.2 , C
High yearly outside Temperature, 31.9 , C
Low yearly outside Temperature, 0.7 , C

Low monthly barometer, 1007.0 , mb
High monthly barometer, 1024.9 , mb
Low yearly barometer, 976.8 , mb
High yearly barometer 1035.7 , mb

High wind speed, 17.0 , mph
Time of High wind speed, 0:59 , mph
High monthly wind speed, 25.0 , mph
High yearly wind speed, 64.0 , mph

 

 




3125
                    Temp     Hi    Low   Out    Dew  Wind  Wind   Wind    Hi    Hi   Wind   Heat    THW                Rain    Heat    Cool    In     In    In     In     In   In Air  Wind  Wind    ISS   Arc.
  Date    Time     Out   Temp   Temp   Hum    Pt. Speed   Dir    Run Speed   Dir  Chill  Index  Index   Bar    Rain  Rate    D-D     D-D    Temp   Hum    Dew   Heat    EMC Density  Samp   Tx   Recept  Int.
---------------------------------------------------------------------------------------------------------------------------------------------------------------------------------------------------------------
17/09/14   0:05   16.7   16.7   16.7    84   13.9   8.0   NNE   0.67  13.0   NNE   16.1   16.8   16.2  1011.6  0.00   0.0   0.006   0.000   28.7    48   16.6   29.4   8.78 1.1462    115    1    100.0    5 
17/09/14   0:10   16.7   16.7   16.7    84   13.9   7.0   NNE   0.58  12.0    NE   16.5   16.8   16.7  1011.6  0.00   0.0   0.006   0.000   28.7    48   16.6   29.4   8.78 1.1462    116    1    100.0    5 
17/09/14   0:15   16.7   16.7   16.7    84   13.9   8.0    NE   0.67  14.0   ENE   16.1   16.8   16.2  1011.6  0.00   0.0   0.006   0.000   28.7    47   16.3   29.4   8.58 1.1466    117    1    100.0    5 
17/09/14   0:20   16.7   16.7   16.7    84   13.9   7.0    NE   0.58  12.0   NNE   16.5   16.8   16.7  1011.6  0.00   0.0   0.006   0.000   28.7    47   16.3   29.4   8.58 1.1466    116    1    100.0    5 
17/09/14   0:25   16.7   16.7   16.6    85   14.1   8.0    NE   0.67  17.0    NE   16.1   16.8   16.2  1011.6  0.00   0.0   0.006   0.000   28.7    47   16.3   29.4   8.58 1.1466    117    1    100.0    5 
17/09/14   0:30   16.6   16.7   16.6    85   14.1   8.0    NE   0.67  17.0    NE   16.0   16.8   16.2  1011.6  0.00   0.0   0.006   0.000   28.7    47   16.3   29.4   8.58 1.1467    117    1    100.0    5 
17/09/14   0:35   16.6   16.6   16.6    85   14.0   7.0    NE   0.58  13.0   ENE   16.3   16.7   16.5  1011.6  0.00   0.0   0.006   0.000   28.7    47   16.3   29.4   8.58 1.1467    116    1    100.0    5 
17/09/14   0:40   16.5   16.6   16.5    86   14.1   7.0    NE   0.58  13.0    NE   16.3   16.7   16.4  1011.6  0.00   0.0   0.006   0.000   28.7    47   16.3   29.4   8.58 1.1466    116    1    100.0    5 
17/09/14   0:45   16.4   16.6   16.4    86   14.1   6.0   NNE   0.50  13.0   NNE   16.4   16.6   16.6  1011.6  0.00   0.0   0.007   0.000   28.7    47   16.2   29.3   8.58 1.1469    115    1    100.0    5 
17/09/14   0:50   16.4   16.4   16.4    86   14.0   6.0    NE   0.50  13.0   NNE   16.3   16.6   16.5  1011.6  0.00   0.0   0.007   0.000   28.7    47   16.2   29.3   8.58 1.1469    117    1    100.0    5 
17/09/14   0:55   16.3   16.4   16.3    86   14.0   6.0   NNE   0.50  13.0   NNE   16.3   16.5   16.4  1011.6  0.00   0.0   0.007   0.000   28.7    47   16.2   29.3   8.58 1.1469    113    1     99.1    5 
17/09/14   1:00   16.2   16.3   16.2    86   13.9   7.0    NE   0.58  12.0   NNE   15.9   16.4   16.1  1011.6  0.00   0.0   0.007   0.000   28.6    47   16.2   29.2   8.58 1.1472    118    1    100.0    5 
17/09/14   1:05   16.2   16.2   16.2    87   14.0   7.0    NE   0.58  10.0   NNE   15.8   16.3   16.0  1011.5  0.00   0.0   0.008   0.000   28.6    47   16.2   29.2   8.58 1.1471    116    1    100.0    5 
17/09/14   1:10   16.1   16.2   16.1    87   13.9   6.0    NE   0.50  11.0   ENE   16.0   16.3   16.2  1011.5  0.00   0.0   0.008   0.000   28.6    47   16.2   29.2   8.58 1.1471    115    1    100.0    5 
17/09/14   1:15   16.1   16.1   16.1    87   13.9   6.0   NNE   0.50  11.0    NE   15.9   16.2   16.1  1011.4  0.00   0.0   0.008   0.000   28.6    47   16.1   29.1   8.58 1.1473    117    1    100.0    5 
17/09/14   1:20   16.0   16.1   16.0    87   13.8   6.0   NNE   0.50  10.0    NE   15.9   16.2   16.1  1011.4  0.00   0.0   0.008   0.000   28.6    47   16.1   29.1   8.58 1.1473    117    1    100.0    5 
17/09/14   1:25   15.9   16.0   15.9    88   14.0   8.0   NNE   0.67  13.0   NNE   15.2   16.1   15.3  1011.4  0.00   0.0   0.008   0.000   28.6    47   16.1   29.1   8.58 1.1473    116    1    100.0    5 
17/09/14   1:30   15.9   15.9   15.9    88   13.9   8.0   NNE   0.67  12.0   NNE   15.1   16.1   15.3  1011.3  0.00   0.0   0.008   0.000   28.5    47   16.1   29.1   8.58 1.1475    116    1    100.0    5 
17/09/14   1:35   15.8   15.9   15.8    88   13.8   9.0   NNE   0.75  14.0   NNE   14.6   16.0   14.8  1011.3  0.00   0.0   0.009   0.000   28.4    47   16.0   28.9   8.59 1.1477    117    1    100.0    5 
17/09/14   1:40   15.8   15.8   15.8    88   13.8   8.0   NNE   0.67  13.0    NE   15.1   16.0   15.2  1011.2  0.00   0.0   0.009   0.000   28.4    47   16.0   28.9   8.59 1.1477    116    1    100.0    5 
17/09/14   1:45   15.8   15.8   15.8    88   13.8   7.0   NNE   0.58  12.0    NE   15.4   15.9   15.6  1011.2  0.00   0.0   0.009   0.000   28.4    47   16.0   28.9   8.59 1.1477    117    1    100.0    5 
17/09/14   1:50   15.8   15.8   15.8    89   14.0   7.0    NE   0.58  11.0   NNE   15.4   15.9   15.6  1011.3  0.00   0.0   0.009   0.000   28.4    47   16.0   28.8   8.59 1.1480    117    1    100.0    5 
17/09/14   1:55   15.8   15.8   15.8    89   14.0   8.0   NNE   0.67  13.0    NE   15.0   15.9   15.2  1011.2  0.00   0.0   0.009   0.000   28.3    47   15.9   28.8   8.59 1.1482    117    1    100.0    5 
17/09/14   2:00   15.8   15.8   15.8    89   14.0   8.0   NNE   0.67  13.0   NNE   15.0   15.9   15.2  1011.0  0.00   0.0   0.009   0.000   28.3    47   15.9   28.8   8.59 1.1480    117    1    100.0    5 
17/09/14   2:05   15.8   15.8   15.8    89   14.0   8.0   NNE   0.67  14.0    NE   15.0   15.9   15.2  1011.1  0.00   0.0   0.009   0.000   28.3    47   15.9   28.7   8.59 1.1483    116    1    100.0    5 
17/09/14   2:10   15.8   15.8   15.8    90   14.1   8.0   NNE   0.67  14.0    NE   15.0   15.9   15.2  1011.1  0.00   0.0   0.009   0.000   28.2    47   15.8   28.6   8.59 1.1486    117    1    100.0    5 
17/09/14   2:15   15.8   15.8   15.8    90   14.1   7.0   NNE   0.58  13.0   NNE   15.4   15.9   15.6  1011.0  0.00   0.0   0.009   0.000   28.2    47   15.8   28.6   8.59 1.1485    117    1    100.0    5 
17/09/14   2:20   15.8   15.8   15.8    90   14.1   7.0   NNE   0.58  12.0    NE   15.4   15.9   15.6  1011.0  0.00   0.0   0.009   0.000   28.2    47   15.8   28.5   8.60 1.1488    115    1    100.0    5 
17/09/14   2:25   15.8   15.8   15.7    90   14.1   8.0   NNE   0.67  13.0    NE   15.0   15.9   15.2  1011.0  0.00   0.0   0.009   0.000   28.2    47   15.8   28.5   8.60 1.1488    116    1    100.0    5 
17/09/14   2:30   15.7   15.8   15.7    90   14.1   7.0   NNE   0.58  12.0     N   15.3   15.9   15.5  1010.9  0.00   0.0   0.009   0.000   28.1    47   15.7   28.4   8.60 1.1489    117    1    100.0    5 
17/09/14   2:35   15.8   15.8   15.7    90   14.1   9.0   NNE   0.75  14.0   NNE   14.6   15.9   14.7  1010.8  0.00   0.0   0.009   0.000   28.1    47   15.7   28.4   8.60 1.1489    114    1    100.0    5 
17/09/14   2:40   15.7   15.8   15.7    90   14.1   8.0   NNE   0.67  15.0    NE   14.9   15.9   15.1  1010.8  0.00   0.0   0.009   0.000   28.1    47   15.7   28.3   8.60 1.1491    117    1    100.0    5 
17/09/14   2:45   15.7   15.8   15.7    90   14.1   9.0   NNE   0.75  15.0    NE   14.5   15.9   14.7  1010.8  0.00   0.0   0.009   0.000   28.1    47   15.7   28.3   8.60 1.1491    117    1    100.0    5 
17/09/14   2:50   15.8   15.8   15.7    90   14.1   9.0   NNE   0.75  17.0    NE   14.6   15.9   14.7  1010.8  0.00   0.0   0.009   0.000   28.0    47   15.6   28.2   8.60 1.1493    116    1    100.0    5 
17/09/14   2:55   15.7   15.8   15.7    91   14.3   8.0   NNE   0.67  14.0   NNE   14.9   15.9   15.1  1010.8  0.00   0.0   0.009   0.000   28.0    47   15.6   28.2   8.60 1.1493    117    1    100.0    5 
17/09/14   3:00   15.7   15.7   15.7    91   14.3   9.0   NNE   0.75  14.0    NE   14.5   15.9   14.7  1010.8  0.00   0.0   0.009   0.000   27.9    47   15.6   28.2   8.60 1.1497    117    1    100.0    5 
17/09/14   3:05   15.7   15.7   15.7    91   14.3   7.0   NNE   0.58  12.0    NE   15.3   15.9   15.5  1010.7  0.00   0.0   0.009   0.000   27.9    47   15.6   28.2   8.60 1.1495    118    1    100.0    5 
17/09/14   3:10   15.7   15.7   15.7    91   14.3   9.0   NNE   0.75  15.0   NNE   14.5   15.9   14.7  1010.7  0.00   0.0   0.009   0.000   27.9    47   15.5   28.1   8.61 1.1499    117    1    100.0    5 
17/09/14   3:15   15.7   15.7   15.7    91   14.2   8.0   NNE   0.67  13.0   ENE   14.8   15.8   15.0  1010.7  0.00   0.0   0.009   0.000   27.8    47   15.5   27.9   8.61 1.1501    116    1    100.0    5 
17/09/14   3:20   15.7   15.7   15.7    91   14.2   9.0   NNE   0.75  15.0   NNE   14.4   15.8   14.6  1010.7  0.00   0.0   0.009   0.000   27.8    47   15.5   27.9   8.61 1.1501    117    1    100.0    5 
17/09/14   3:25   15.7   15.7   15.7    91   14.2   8.0   NNE   0.67  15.0   NNE   14.8   15.8   15.0  1010.6  0.00   0.0   0.009   0.000   27.8    47   15.4   27.9   8.61 1.1503    116    1    100.0    5 
17/09/14   3:30   15.6   15.7   15.6    91   14.1   9.0   NNE   0.75  15.0    NE   14.3   15.8   14.5  1010.5  0.00   0.0   0.009   0.000   27.8    47   15.4   27.9   8.61 1.1502    116    1    100.0    5 
17/09/14   3:35   15.6   15.6   15.6    91   14.1   9.0   NNE   0.75  14.0   NNE   14.3   15.8   14.5  1010.5  0.00   0.0   0.009   0.000   27.7    47   15.4   27.8   8.61 1.1505    115    1    100.0    5 
17/09/14   3:40   15.6   15.6   15.6    91   14.1   8.0   NNE   0.67  15.0   NNE   14.7   15.7   14.9  1010.5  0.00   0.0   0.010   0.000   27.7    47   15.4   27.8   8.61 1.1504    115    1    100.0    5 
17/09/14   3:45   15.6   15.6   15.6    91   14.1   9.0   NNE   0.75  16.0   ENE   14.3   15.7   14.4  1010.5  0.00   0.0   0.010   0.000   27.7    47   15.3   27.7   8.61 1.1507    116    1    100.0    5 
17/09/14   3:50   15.5   15.6   15.5    91   14.0   9.0   NNE   0.75  14.0   NNE   14.2   15.7   14.4  1010.5  0.00   0.0   0.010   0.000   27.6    47   15.3   27.7   8.62 1.1510    117    1    100.0    5 
17/09/14   3:55   15.5   15.5   15.5    91   14.0   9.0   NNE   0.75  15.0    NE   14.2   15.7   14.4  1010.4  0.00   0.0   0.010   0.000   27.6    48   15.6   27.7   8.82 1.1505    117    1    100.0    5 
17/09/14   4:00   15.5   15.5   15.5    92   14.2   9.0   NNE   0.75  15.0   NNE   14.2   15.7   14.4  1010.4  0.00   0.0   0.010   0.000   27.6    48   15.6   27.7   8.82 1.1505    117    1    100.0    5 
17/09/14   4:05   15.4   15.5   15.4    92   14.2   8.0   NNE   0.67  12.0   NNE   14.6   15.6   14.8  1010.4  0.00   0.0   0.010   0.000   27.6    48   15.6   27.7   8.82 1.1507    116    1    100.0    5 
17/09/14   4:10   15.4   15.5   15.4    92   14.2   8.0   NNE   0.67  15.0    NE   14.6   15.6   14.8  1010.4  0.00   0.0   0.010   0.000   27.5    48   15.5   27.6   8.82 1.1510    116    1    100.0    5 
17/09/14   4:15   15.4   15.4   15.4    92   14.2  10.0   NNE   0.83  17.0   NNE   13.8   15.6   13.9  1010.4  0.00   0.0   0.010   0.000   27.4    48   15.5   27.5   8.82 1.1513    117    1    100.0    5 
17/09/14   4:20   15.4   15.4   15.4    92   14.2  10.0   NNE   0.83  17.0    NE   13.8   15.6   13.9  1010.4  0.00   0.0   0.010   0.000   27.4    48   15.5   27.5   8.82 1.1513    116    1    100.0    5 
17/09/14   4:25   15.4   15.4   15.4    92   14.2  11.0   NNE   0.92  19.0   NNE   13.4   15.6   13.6  1010.2  0.00   0.0   0.010   0.000   27.4    48   15.4   27.4   8.82 1.1513    117    1    100.0    5 
17/09/14   4:30   15.4   15.4   15.4    92   14.1  11.0   NNE   0.92  19.0   NNE   13.3   15.6   13.5  1010.3  0.00   0.0   0.010   0.000   27.3    48   15.4   27.3   8.83 1.1517    116    1    100.0    5 
17/09/14   4:35   15.3   15.4   15.3    92   14.0  11.0   NNE   0.92  19.0   NNE   13.3   15.5   13.4  1010.1  0.00   0.0   0.010   0.000   27.3    48   15.4   27.3   8.83 1.1515    116    1    100.0    5 
17/09/14   4:40   15.3   15.4   15.3    92   14.0  11.0   NNE   0.92  17.0   NNE   13.3   15.5   13.4  1010.2  0.00   0.0   0.010   0.000   27.3    48   15.4   27.3   8.83 1.1516    117    1    100.0    5 
17/09/14   4:45   15.3   15.3   15.3    92   14.0  10.0   NNE   0.83  17.0   NNE   13.6   15.5   13.8  1010.1  0.00   0.0   0.010   0.000   27.3    48   15.3   27.3   8.83 1.1517    116    1    100.0    5 
17/09/14   4:50   15.3   15.3   15.3    92   14.0  10.0   NNE   0.83  16.0   NNE   13.6   15.4   13.7  1010.0  0.00   0.0   0.011   0.000   27.2    48   15.3   27.2   8.83 1.1519    117    1    100.0    5 
17/09/14   4:55   15.3   15.3   15.3    92   14.0  11.0   NNE   0.92  18.0   NNE   13.2   15.4   13.4  1010.1  0.00   0.0   0.011   0.000   27.2    48   15.3   27.2   8.83 1.1520    117    1    100.0    5 
17/09/14   5:00   15.2   15.3   15.2    92   13.9  10.0   NNE   0.83  15.0     N   13.5   15.4   13.7  1010.1  0.00   0.0   0.011   0.000   27.2    48   15.2   27.2   8.83 1.1523    117    1    100.0    5 
17/09/14   5:05   15.2   15.2   15.2    92   13.9  11.0   NNE   0.92  16.0    NE   13.1   15.4   13.3  1010.0  0.00   0.0   0.011   0.000   27.2    48   15.2   27.2   8.83 1.1522    117    1    100.0    5 
17/09/14   5:10   15.2   15.2   15.2    92   13.9  11.0   NNE   0.92  19.0   NNE   13.1   15.3   13.2  1010.0  0.00   0.0   0.011   0.000   27.1    48   15.2   27.1   8.83 1.1525    117    1    100.0    5 
17/09/14   5:15   15.2   15.2   15.2    93   14.0  11.0   NNE   0.92  18.0   NNE   13.1   15.3   13.2  1010.0  0.00   0.0   0.011   0.000   27.1    48   15.1   27.0   8.84 1.1528    116    1    100.0    5 
17/09/14   5:20   15.2   15.2   15.2    93   14.0  11.0   NNE   0.92  17.0    NE   13.1   15.3   13.2  1010.0  0.00   0.0   0.011   0.000   27.1    48   15.1   27.0   8.84 1.1527    115    1    100.0    5 
17/09/14   5:25   15.1   15.2   15.1    93   14.0  10.0   NNE   0.83  17.0   NNE   13.3   15.3   13.5  1010.0  0.00   0.0   0.011   0.000   27.0    48   15.1   26.9   8.84 1.1530    116    1    100.0    5 
17/09/14   5:30   15.1   15.2   15.1    93   14.0  11.0   NNE   0.92  17.0   NNE   13.0   15.3   13.2  1010.1  0.00   0.0   0.011   0.000   27.0    48   15.1   26.9   8.84 1.1531    115    1    100.0    5 
17/09/14   5:35   15.1   15.1   15.1    93   14.0  10.0   NNE   0.83  16.0   NNE   13.3   15.3   13.5  1010.0  0.00   0.0   0.011   0.000   26.9    48   15.0   26.9   8.84 1.1533    117    1    100.0    5 
17/09/14   5:40   15.1   15.1   15.1    93   14.0  11.0   NNE   0.92  16.0     N   13.0   15.3   13.2  1010.1  0.00   0.0   0.011   0.000   26.9    48   15.0   26.9   8.84 1.1534    117    1    100.0    5 
17/09/14   5:45   15.1   15.1   15.1    93   13.9  10.0   NNE   0.83  18.0   NNE   13.3   15.2   13.4  1010.0  0.00   0.0   0.011   0.000   26.9    48   15.0   26.8   8.84 1.1536    116    1    100.0    5 
17/09/14   5:50   15.1   15.1   15.1    93   13.9  10.0   NNE   0.83  17.0   NNE   13.3   15.2   13.4  1010.2  0.00   0.0   0.011   0.000   26.8    48   14.9   26.8   8.84 1.1541    117    1    100.0    5 
17/09/14   5:55   15.1   15.1   15.1    93   13.9  11.0   NNE   0.92  18.0    NE   12.9   15.2   13.1  1010.1  0.00   0.0   0.011   0.000   26.8    48   14.9   26.8   8.84 1.1540    117    1    100.0    5 
17/09/14   6:00   15.1   15.1   15.1    93   13.9  10.0   NNE   0.83  15.0   NNE   13.3   15.2   13.4  1010.1  0.00   0.0   0.011   0.000   26.8    48   14.8   26.7   8.85 1.1542    117    1    100.0    5 
17/09/14   6:05   15.1   15.1   15.1    93   13.9   9.0   NNE   0.75  15.0   NNE   13.7   15.2   13.8  1010.1  0.00   0.0   0.011   0.000   26.8    48   14.8   26.7   8.85 1.1542    117    1    100.0    5 
17/09/14   6:10   15.1   15.1   15.1    93   13.9   9.0   NNE   0.75  14.0   NNE   13.7   15.2   13.8  1010.1  0.00   0.0   0.011   0.000   26.7    48   14.8   26.7   8.85 1.1546    117    1    100.0    5 
17/09/14   6:15   15.1   15.1   15.1    93   14.0   9.0   NNE   0.75  14.0   NNE   13.7   15.3   13.9  1010.0  0.00   0.0   0.011   0.000   26.7    49   15.1   26.7   8.95 1.1543    116    1    100.0    5 
17/09/14   6:20   15.2   15.2   15.1    93   14.0   8.0   NNE   0.67  13.0   NNE   14.3   15.3   14.4  1010.0  0.00   0.0   0.011   0.000   26.7    49   15.1   26.7   8.95 1.1543    117    1    100.0    5 
17/09/14   6:25   15.2   15.2   15.2    94   14.3   9.0   NNE   0.75  14.0   NNE   13.9   15.4   14.1  1010.0  0.00   0.0   0.011   0.000   26.7    49   15.1   26.7   8.95 1.1543    115    1    100.0    5 
17/09/14   6:30   15.3   15.3   15.2    94   14.3   9.0   NNE   0.75  14.0    NE   13.9   15.5   14.2  1010.0  0.00   0.0   0.011   0.000   26.6    49   15.0   26.6   8.95 1.1546    117    1    100.0    5 
17/09/14   6:35   15.3   15.3   15.3    93   14.2  10.0   NNE   0.83  16.0   NNE   13.6   15.5   13.8  1010.1  0.00   0.0   0.010   0.000   26.6    49   15.0   26.6   8.95 1.1546    114    1    100.0    5 
17/09/14   6:40   15.4   15.4   15.3    93   14.3  10.0   NNE   0.83  17.0   NNE   13.7   15.6   13.8  1010.1  0.00   0.0   0.010   0.000   26.6    49   15.0   26.6   8.95 1.1549    115    1    100.0    5 
17/09/14   6:45   15.4   15.4   15.4    93   14.3   9.0   NNE   0.75  17.0   NNE   14.1   15.6   14.2  1010.1  0.00   0.0   0.010   0.000   26.6    49   15.0   26.6   8.95 1.1550    116    1    100.0    5 
17/09/14   6:50   15.4   15.4   15.4    93   14.3   9.0   NNE   0.75  14.0   NNE   14.1   15.6   14.2  1010.1  0.00   0.0   0.010   0.000   26.5    49   14.9   26.5   8.96 1.1552    117    1    100.0    5 
17/09/14   6:55   15.4   15.4   15.4    93   14.3   9.0   NNE   0.75  16.0    NE   14.2   15.7   14.4  1010.0  0.00   0.0   0.010   0.000   26.5    49   14.9   26.5   8.96 1.1552    116    1    100.0    5 
17/09/14   7:00   15.5   15.5   15.4    94   14.5   9.0   NNE   0.75  13.0   NNE   14.2   15.7   14.4  1010.0  0.00   0.0   0.010   0.000   26.5    49   14.9   26.5   8.96 1.1552    116    1    100.0    5 
17/09/14   7:05   15.6   15.6   15.5    94   14.6   9.0   NNE   0.75  14.0    NE   14.3   15.8   14.5  1010.1  0.00   0.0   0.010   0.000   26.4    49   14.9   26.4   8.96 1.1555    116    1    100.0    5 
17/09/14   7:10   15.6   15.6   15.6    94   14.6  10.0   NNE   0.83  17.0    NE   13.9   15.8   14.2  1010.0  0.00   0.0   0.009   0.000   26.4    49   14.9   26.4   8.96 1.1554    115    1    100.0    5 
17/09/14   7:15   15.7   15.7   15.6    94   14.7   9.0   NNE   0.75  13.0    NE   14.4   15.9   14.6  1010.0  0.00   0.0   0.009   0.000   26.4    49   14.8   26.4   8.96 1.1557    116    1    100.0    5 
17/09/14   7:20   15.7   15.7   15.7    94   14.8  10.0   NNE   0.83  16.0   NNE   14.1   15.9   14.3  1010.0  0.00   0.0   0.009   0.000   26.4    49   14.8   26.4   8.96 1.1557    116    1    100.0    5 
17/09/14   7:25   15.8   15.8   15.7    94   14.8  10.0   NNE   0.83  16.0   NNE   14.1   16.0   14.3  1010.1  0.00   0.0   0.009   0.000   26.4    49   14.8   26.4   8.96 1.1558    117    1    100.0    5 
17/09/14   7:30   15.8   15.8   15.8    94   14.9  10.0   NNE   0.83  16.0   NNE   14.2   16.1   14.4  1010.1  0.00   0.0   0.009   0.000   26.3    49   14.8   26.4   8.96 1.1560    117    1    100.0    5 
17/09/14   7:35   15.9   15.9   15.8    94   14.9   8.0   NNE   0.67  13.0    NE   15.1   16.1   15.3  1010.0  0.00   0.0   0.008   0.000   26.3    50   15.1   26.4   9.16 1.1556    117    1    100.0    5 
17/09/14   7:40   15.9   15.9   15.9    94   15.0   8.0   NNE   0.67  15.0   NNE   15.2   16.2   15.4  1010.1  0.00   0.0   0.008   0.000   26.3    50   15.1   26.4   9.16 1.1556    117    1    100.0    5 
17/09/14   7:45   16.1   16.1   15.9    94   15.1   9.0   NNE   0.75  16.0    NE   14.9   16.3   15.2  1010.0  0.00   0.0   0.008   0.000   26.3    50   15.0   26.4   9.16 1.1558    117    1    100.0    5 
17/09/14   7:50   16.1   16.1   16.1    93   15.0  12.0   NNE   1.00  18.0   NNE   13.8   16.4   14.1  1009.9  0.00   0.0   0.008   0.000   26.3    50   15.0   26.4   9.16 1.1558    117    1    100.0    5 
17/09/14   7:55   16.2   16.2   16.1    93   15.0   9.0   NNE   0.75  14.0    NE   15.0   16.4   15.3  1010.1  0.00   0.0   0.008   0.000   26.3    50   15.0   26.4   9.16 1.1559    117    1    100.0    5 
17/09/14   8:00   16.2   16.2   16.2    93   15.1   8.0   NNE   0.67  13.0   NNE   15.5   16.5   15.8  1010.1  0.00   0.0   0.007   0.000   26.3    50   15.0   26.4   9.16 1.1559    117    1    100.0    5 
17/09/14   8:05   16.3   16.3   16.2    93   15.1   8.0   NNE   0.67  17.0     N   15.6   16.6   15.9  1010.0  0.00   0.0   0.007   0.000   26.3    50   15.0   26.4   9.16 1.1558    117    1    100.0    5 
17/09/14   8:10   16.3   16.3   16.3    93   15.2   8.0   NNE   0.67  15.0   NNE   15.7   16.6   15.9  1010.1  0.00   0.0   0.007   0.000   26.2    50   15.0   26.3   9.17 1.1562    116    1    100.0    5 
17/09/14   8:15   16.4   16.4   16.3    93   15.3  10.0   NNE   0.83  15.0   NNE   14.9   16.8   15.2  1010.0  0.00   0.0   0.007   0.000   26.3    50   15.0   26.4   9.16 1.1559    116    1    100.0    5 
17/09/14   8:20   16.5   16.5   16.4    93   15.4   9.0   NNE   0.75  17.0    NE   15.4   16.8   15.7  1010.0  0.00   0.0   0.006   0.000   26.2    50   15.0   26.3   9.17 1.1562    116    1    100.0    5 
17/09/14   8:25   16.6   16.6   16.5    93   15.4   9.0   NNE   0.75  15.0   ENE   15.4   16.9   15.8  1010.0  0.00   0.0   0.006   0.000   26.2    50   15.0   26.3   9.17 1.1561    116    1    100.0    5 
17/09/14   8:30   16.7   16.7   16.6    93   15.5   9.0   NNE   0.75  17.0    NE   15.6   17.0   15.9  1009.9  0.00   0.0   0.006   0.000   26.2    50   15.0   26.3   9.17 1.1560    115    1    100.0    5 
17/09/14   8:35   16.7   16.7   16.7    93   15.6  11.0   NNE   0.92  20.0   NNW   14.8   17.1   15.2  1010.1  0.00   0.0   0.006   0.000   26.2    50   15.0   26.3   9.17 1.1562    117    1    100.0    5 
17/09/14   8:40   16.9   16.9   16.7    93   15.7  10.0   NNE   0.83  17.0     E   15.4   17.3   15.8  1010.0  0.00   0.0   0.005   0.000   26.2    51   15.3   26.4   9.35 1.1557    117    1    100.0    5 
17/09/14   8:45   17.0   17.0   16.9    92   15.7  11.0   NNE   0.92  20.0    NE   15.2   17.4   15.6  1010.0  0.00   0.0   0.005   0.000   26.2    51   15.2   26.3   9.35 1.1560    117    1    100.0    5 
17/09/14   8:50   17.1   17.1   17.0    92   15.7   9.0    NE   0.75  20.0    NE   16.0   17.4   16.4  1010.0  0.00   0.0   0.004   0.000   26.2    51   15.2   26.3   9.35 1.1560    116    1    100.0    5 
17/09/14   8:55   17.2   17.2   17.1    92   15.9  11.0   NNE   0.92  22.0   NNE   15.4   17.6   15.8  1009.9  0.00   0.0   0.004   0.000   26.1    52   15.5   26.3   9.47 1.1558    116    1    100.0    5 
17/09/14   9:00   17.3   17.3   17.2    92   16.0  10.0   NNE   0.83  15.0    NE   15.9   17.8   16.4  1009.9  0.00   0.0   0.003   0.000   26.1    52   15.5   26.3   9.47 1.1558    117    1    100.0    5 
17/09/14   9:05   17.5   17.5   17.3    91   16.0  10.0   NNE   0.83  20.0   NNE   16.2   17.9   16.6  1009.9  0.00   0.0   0.003   0.000   26.1    52   15.4   26.2   9.47 1.1561    116    1    100.0    5 
17/09/14   9:10   17.8   17.8   17.6    91   16.3  12.0   NNE   1.00  19.0   NNE   15.7   18.2   16.2  1009.8  0.00   0.0   0.002   0.000   26.1    52   15.4   26.2   9.47 1.1559    116    1    100.0    5 
17/09/14   9:15   17.9   17.9   17.8    91   16.5  11.0   NNE   0.92  18.0   NNE   16.3   18.4   16.8  1009.8  0.00   0.0   0.001   0.000   26.1    52   15.4   26.2   9.47 1.1559    115    1    100.0    5 
17/09/14   9:20   18.1   18.1   17.9    90   16.4  11.0   NNE   0.92  19.0     N   16.4   18.6   16.9  1009.8  0.00   0.0   0.001   0.000   26.1    52   15.4   26.2   9.47 1.1559    116    1    100.0    5 
17/09/14   9:25   18.2   18.2   18.1    89   16.3  13.0   NNE   1.08  21.0   NNE   15.9   18.7   16.4  1009.8  0.00   0.0   0.001   0.000   26.1    52   15.4   26.2   9.47 1.1559    118    1    100.0    5 
17/09/14   9:30   18.3   18.3   18.2    89   16.5  12.0   NNE   1.00  20.0   NNE   16.4   18.9   16.9  1009.8  0.00   0.0   0.000   0.000   26.1    52   15.4   26.2   9.47 1.1559    117    1    100.0    5 
17/09/14   9:35   18.4   18.4   18.3    88   16.4  13.0   NNE   1.08  24.0   NNE   16.2   19.0   16.8  1009.8  0.00   0.0   0.000   0.000   26.1    52   15.4   26.2   9.47 1.1559    115    1    100.0    5 
17/09/14   9:40   18.7   18.7   18.4    88   16.6   9.0   NNE   0.75  18.0    NE   17.9   19.3   18.6  1009.7  0.00   0.0   0.000   0.001   26.1    52   15.4   26.2   9.47 1.1558    116    1    100.0    5 
17/09/14   9:45   18.9   18.9   18.7    88   16.9  12.0   NNE   1.00  23.0   NNE   17.1   19.6   17.7  1009.8  0.00   0.0   0.000   0.002   26.1    52   15.4   26.2   9.47 1.1559    116    1    100.0    5 
17/09/14   9:50   19.2   19.2   18.9    87   16.9   9.0   NNE   0.75  15.0   NNE   18.4   19.9   19.2  1010.0  0.00   0.0   0.000   0.003   26.1    52   15.4   26.2   9.47 1.1561    116    1    100.0    5 
17/09/14   9:55   19.2   19.2   19.2    86   16.8  13.0   NNE   1.08  22.0    NE   17.1   19.9   17.8  1010.0  0.00   0.0   0.000   0.003   26.1    53   15.8   26.3   9.65 1.1555    116    1    100.0    5 
17/09/14  10:00   19.3   19.3   19.2    85   16.7  12.0   NNE   1.00  19.0   NNE   17.4   19.9   18.1  1009.9  0.00   0.0   0.000   0.003   26.2    53   15.8   26.4   9.65 1.1551    114    1    100.0    5 
17/09/14  10:05   19.4   19.4   19.3    85   16.9  11.0   NNE   0.92  18.0   NNE   18.0   20.2   18.7  1009.8  0.00   0.0   0.000   0.004   26.2    53   15.8   26.4   9.65 1.1550    117    1    100.0    5 
17/09/14  10:10   19.8   19.8   19.4    84   17.0  11.0   NNE   0.92  21.0   ENE   18.3   20.6   19.1  1009.8  0.00   0.0   0.000   0.005   26.2    53   15.8   26.4   9.65 1.1550    117    1    100.0    5 
17/09/14  10:15   19.9   19.9   19.8    83   17.0  11.0   NNE   0.92  19.0   NNE   18.5   20.7   19.3  1009.8  0.00   0.0   0.000   0.006   26.2    53   15.8   26.4   9.65 1.1550    117    1    100.0    5 
17/09/14  10:20   20.1   20.1   19.9    83   17.1  11.0   NNE   0.92  19.0    NE   18.7   20.9   19.5  1009.9  0.00   0.0   0.000   0.006   26.2    53   15.9   26.4   9.65 1.1548    115    1    100.0    5 
17/09/14  10:25   20.2   20.2   20.1    83   17.2  10.0   NNE   0.83  18.0   NNE   19.1   21.1   19.9  1009.9  0.00   0.0   0.000   0.007   26.2    53   15.9   26.4   9.65 1.1548    117    1    100.0    5 
17/09/14  10:30   20.5   20.5   20.2    82   17.3   8.0   NNE   0.67  14.0   NNE   20.1   21.4   21.0  1010.0  0.00   0.0   0.000   0.008   26.3    53   15.9   26.5   9.65 1.1546    118    1    100.0    5 
17/09/14  10:35   20.7   20.7   20.5    81   17.3   8.0    NE   0.67  17.0     N   20.4   21.5   21.2  1009.8  0.00   0.0   0.000   0.008   26.3    53   16.0   26.6   9.65 1.1541    117    1    100.0    5 
17/09/14  10:40   20.9   20.9   20.7    80   17.3   8.0   NNE   0.67  15.0    NE   20.6   21.6   21.3  1009.7  0.00   0.0   0.000   0.009   26.3    53   16.0   26.6   9.65 1.1540    117    1    100.0    5 
17/09/14  10:45   21.1   21.1   20.9    80   17.5   8.0   NNE   0.67  14.0   NNE   20.8   21.7   21.4  1009.7  0.00   0.0   0.000   0.010   26.4    53   16.0   26.6   9.65 1.1537    117    1    100.0    5 
17/09/14  10:50   21.2   21.2   21.1    78   17.2  10.0    NE   0.83  16.0   NNE   20.1   21.7   20.6  1009.7  0.00   0.0   0.000   0.010   26.4    53   16.0   26.6   9.65 1.1537    116    1    100.0    5 
17/09/14  10:55   21.3   21.3   21.2    78   17.3  13.0   NNE   1.08  18.0     N   19.4   21.9   19.9  1009.7  0.00   0.0   0.000   0.010   26.4    53   16.1   26.7   9.65 1.1534    117    1    100.0    5 
17/09/14  11:00   21.4   21.4   21.3    77   17.2  10.0   NNE   0.83  17.0    NE   20.3   21.9   20.8  1009.6  0.00   0.0   0.000   0.011   26.5    53   16.1   26.8   9.65 1.1531    117    1    100.0    5 
17/09/14  11:05   21.6   21.6   21.4    77   17.4  11.0   NNE   0.92  17.0   NNE   20.2   22.2   20.7  1009.7  0.00   0.0   0.000   0.011   26.5    53   16.1   26.8   9.65 1.1531    117    1    100.0    5 
17/09/14  11:10   21.7   21.7   21.6    76   17.3  14.0   NNE   1.17  22.0   NNE   19.6   22.2   20.1  1009.6  0.00   0.0   0.000   0.012   26.6    53   16.2   26.8   9.65 1.1528    116    1    100.0    5 
17/09/14  11:15   21.7   21.7   21.6    76   17.3  10.0    NE   0.83  23.0   ENE   20.5   22.2   21.0  1009.6  0.00   0.0   0.000   0.012   26.6    53   16.2   26.8   9.65 1.1528    115    1    100.0    5 
17/09/14  11:20   21.8   21.8   21.7    75   17.1  10.0    NE   0.83  18.0    NE   20.6   22.2   21.1  1009.6  0.00   0.0   0.000   0.012   26.6    53   16.2   26.9   9.65 1.1525    117    1    100.0    5 
17/09/14  11:25   22.0   22.1   21.8    75   17.4   9.0   NNE   0.75  18.0   ENE   21.2   22.5   21.7  1009.6  0.00   0.0   0.000   0.013   26.6    53   16.2   26.9   9.65 1.1525    117    1    100.0    5 
17/09/14  11:30   22.3   22.3   22.1    74   17.4  11.0   NNE   0.92  21.0    NE   20.8   22.8   21.4  1009.6  0.00   0.0   0.000   0.014   26.6    53   16.2   26.9   9.65 1.1524    118    1    100.0    5 
17/09/14  11:35   22.4   22.4   22.3    73   17.3  10.0   NNE   0.83  16.0   NNE   21.2   22.9   21.8  1009.6  0.00   0.0   0.000   0.014   26.7    53   16.3   26.9   9.65 1.1521    117    1    100.0    5 
17/09/14  11:40   22.3   22.4   22.3    72   17.0  11.0    NE   0.92  19.0   ENE   20.9   22.8   21.4  1009.6  0.00   0.0   0.000   0.014   26.7    53   16.3   27.0   9.65 1.1519    116    1    100.0    5 
17/09/14  11:45   22.4   22.4   22.3    72   17.1  12.0   NNE   1.00  20.0     N   20.7   22.9   21.3  1009.5  0.00   0.0   0.000   0.014   26.7    53   16.3   27.0   9.65 1.1518    116    1    100.0    5 
17/09/14  11:50   22.6   22.6   22.4    73   17.5  10.0   NNE   0.83  17.0   ENE   21.4   23.2   22.1  1009.5  0.00   0.0   0.000   0.015   26.8    53   16.4   27.1   9.65 1.1515    117    1    100.0    5 
17/09/14  11:55   22.8   22.8   22.6    73   17.7   9.0    NE   0.75  16.0   ENE   22.0   23.5   22.7  1009.5  0.00   0.0   0.000   0.015   26.8    53   16.4   27.1   9.64 1.1512    117    1    100.0    5 
17/09/14  12:00   23.1   23.1   22.8    72   17.7   8.0    NE   0.67  16.0    NE   22.8   23.9   23.6  1009.5  0.00   0.0   0.000   0.016   26.9    53   16.5   27.2   9.64 1.1510    115    1    100.0    5 
17/09/14  12:05   23.1   23.1   23.1    71   17.6  11.0   NNE   0.92  21.0   NNE   21.7   23.9   22.6  1009.4  0.00   0.0   0.000   0.017   26.9    53   16.6   27.2   9.64 1.1505    117    1    100.0    5 
17/09/14  12:10   23.0   23.1   23.0    71   17.5  11.0   NNE   0.92  15.0    NE   21.6   23.8   22.4  1009.5  0.00   0.0   0.000   0.016   27.0    53   16.6   27.3   9.64 1.1503    117    1    100.0    5 
17/09/14  12:15   22.9   23.0   22.9    71   17.4  11.0   NNE   0.92  17.0   NNE   21.6   23.7   22.3  1009.4  0.00   0.0   0.000   0.016   27.1    53   16.7   27.4   9.64 1.1500    117    1    100.0    5 
17/09/14  12:20   23.2   23.2   22.9    71   17.7   9.0   NNE   0.75  17.0     N   22.5   24.1   23.4  1009.4  0.00   0.0   0.000   0.017   27.1    52   16.4   27.4   9.43 1.1501    117    1    100.0    5 
17/09/14  12:25   23.4   23.4   23.2    70   17.7  10.0   NNE   0.83  17.0   NNE   22.3   24.3   23.2  1009.3  0.00   0.0   0.000   0.018   27.1    52   16.4   27.4   9.43 1.1500    116    1    100.0    5 
17/09/14  12:30   23.7   23.7   23.4    70   17.9   8.0    NE   0.67  16.0   ENE   23.4   24.7   24.4  1009.4  0.00   0.0   0.000   0.019   27.2    53   16.8   27.6   9.63 1.1491    117    1    100.0    5 
17/09/14  12:35   23.9   23.9   23.7    69   17.9  10.0   NNE   0.83  17.0   NNE   22.8   24.8   23.7  1009.4  0.00   0.0   0.000   0.019   27.2    53   16.8   27.6   9.63 1.1491    118    1    100.0    5 
17/09/14  12:40   23.8   23.9   23.8    68   17.6   9.0   NNE   0.75  18.0    NE   23.1   24.7   23.9  1009.3  0.00   0.0   0.000   0.019   27.3    52   16.6   27.7   9.43 1.1488    116    1    100.0    5 
17/09/14  12:45   23.4   23.8   23.4    68   17.1  12.0   NNE   1.00  19.0   NNE   21.8   24.2   22.6  1009.2  0.00   0.0   0.000   0.018   27.3    52   16.6   27.7   9.43 1.1488    117    1    100.0    5 
17/09/14  12:50   23.4   23.4   23.3    70   17.7   9.0   NNE   0.75  17.0   NNE   22.7   24.3   23.6  1009.2  0.00   0.0   0.000   0.018   27.4    52   16.7   27.7   9.42 1.1484    117    1    100.0    5 
17/09/14  12:55   23.4   23.5   23.4    69   17.4  10.0   NNE   0.83  16.0   NNE   22.3   24.3   23.2  1009.2  0.00   0.0   0.000   0.018   27.4    52   16.7   27.7   9.42 1.1484    117    1    100.0    5 
17/09/14  13:00   23.4   23.4   23.4    70   17.6   9.0    NE   0.75  18.0    NE   22.7   24.3   23.6  1009.2  0.00   0.0   0.000   0.018   27.4    52   16.7   27.8   9.42 1.1482    117    1    100.0    5 
17/09/14  13:05   23.7   23.7   23.4    70   17.9   7.0   NNE   0.58  14.0    NE   23.7   24.6   24.6  1009.2  0.00   0.0   0.000   0.019   27.5    52   16.8   27.9   9.42 1.1479    117    1    100.0    5 
17/09/14  13:10   24.0   24.0   23.7    69   18.0  10.0   NNE   0.83  18.0     N   22.9   24.9   23.8  1009.1  0.00   0.0   0.000   0.020   27.6    52   16.8   27.9   9.42 1.1475    117    1    100.0    5 
17/09/14  13:15   23.9   24.1   23.9    68   17.7  12.0   NNE   1.00  18.0   NNE   22.4   24.8   23.2  1009.1  0.00   0.0   0.000   0.019   27.6    52   16.9   28.1   9.42 1.1472    117    1    100.0    5 
17/09/14  13:20   24.1   24.1   23.9    69   18.1   8.0    NE   0.67  17.0    NE   23.8   25.0   24.7  1009.1  0.00   0.0   0.000   0.020   27.6    52   16.9   28.1   9.42 1.1472    117    1    100.0    5 
17/09/14  13:25   24.5   24.5   24.1    67   18.0   9.0   NNE   0.75  16.0   NNE   23.8   25.3   24.6  1009.0  0.00   0.0   0.000   0.021   27.7    52   16.9   28.1   9.41 1.1468    117    1    100.0    5 
17/09/14  13:30   24.5   24.6   24.5    67   18.0  10.0   NNE   0.83  15.0   NNE   23.4   25.3   24.3  1009.0  0.00   0.0   0.000   0.021   27.7    52   17.0   28.2   9.41 1.1465    116    1    100.0    5 
17/09/14  13:35   24.7   24.7   24.5    66   17.9  11.0    NE   0.92  18.0   ENE   23.4   25.4   24.2  1009.0  0.00   0.0   0.000   0.022   27.8    52   17.0   28.3   9.41 1.1463    117    1    100.0    5 
17/09/14  13:40   25.0   25.0   24.7    65   18.0   8.0    NE   0.67  15.0   ENE   24.7   25.7   25.4  1008.9  0.00   0.0   0.000   0.023   27.8    52   17.1   28.4   9.41 1.1459    117    1    100.0    5 
17/09/14  13:45   25.2   25.2   25.1    64   17.9   9.0   NNE   0.75  18.0   NNE   24.5   25.8   25.2  1008.8  0.00   0.0   0.000   0.024   27.9    52   17.1   28.4   9.41 1.1455    115    1    100.0    5 
17/09/14  13:50   25.0   25.2   25.0    64   17.7   8.0    NE   0.67  14.0   ENE   24.7   25.7   25.4  1008.7  0.00   0.0   0.000   0.023   27.9    52   17.2   28.6   9.40 1.1451    117    1    100.0    5 
17/09/14  13:55   24.9   25.0   24.9    65   17.9   6.0    NE   0.50  13.0   ENE   24.9   25.7   25.7  1008.7  0.00   0.0   0.000   0.023   28.0    52   17.2   28.6   9.40 1.1448    117    1    100.0    5 
17/09/14  14:00   24.8   24.9   24.8    64   17.6   7.0    NE   0.58  15.0   ENE   24.8   25.5   25.5  1008.7  0.00   0.0   0.000   0.023   28.0    51   16.9   28.6   9.30 1.1452    117    1    100.0    5 
17/09/14  14:05   24.7   24.8   24.7    66   17.9  10.0   ENE   0.83  18.0   NNE   23.6   25.4   24.4  1008.6  0.00   0.0   0.000   0.022   28.1    51   17.0   28.7   9.30 1.1448    117    1    100.0    5 
17/09/14  14:10   25.1   25.1   24.7    66   18.3   7.0    NE   0.58  13.0    NE   25.1   25.8   25.8  1008.5  0.00   0.0   0.000   0.023   28.1    51   17.0   28.7   9.30 1.1444    117    1    100.0    5 
17/09/14  14:15   25.4   25.4   25.1    65   18.4   7.0    NE   0.58  15.0   NNE   25.4   26.2   26.2  1008.4  0.00   0.0   0.000   0.025   28.2    51   17.1   28.8   9.30 1.1440    116    1    100.0    5 
17/09/14  14:20   25.6   25.6   25.4    62   17.7  10.0    NE   0.83  19.0    NE   24.6   26.2   25.2  1008.4  0.00   0.0   0.000   0.025   28.2    51   17.1   28.9   9.29 1.1437    117    1    100.0    5 
17/09/14  14:25   25.6   25.6   25.6    63   18.0   7.0    NE   0.58  13.0    NE   25.6   26.2   26.2  1008.4  0.00   0.0   0.000   0.025   28.3    51   17.2   29.0   9.29 1.1434    117    1    100.0    5 
17/09/14  14:30   25.4   25.6   25.4    63   17.9  10.0   NNE   0.83  17.0     N   24.4   26.1   25.1  1008.3  0.00   0.0   0.000   0.025   28.4    51   17.3   29.2   9.29 1.1427    117    1    100.0    5 
17/09/14  14:35   25.3   25.4   25.3    64   18.0   9.0    NE   0.75  18.0   NNE   24.7   26.1   25.4  1008.3  0.00   0.0   0.000   0.024   28.4    51   17.3   29.3   9.29 1.1425    117    1    100.0    5 
17/09/14  14:40   25.4   25.4   25.3    63   17.9  11.0    NE   0.92  19.0    NE   24.2   26.1   24.9  1008.3  0.00   0.0   0.000   0.025   28.4    51   17.3   29.3   9.29 1.1424    118    1    100.0    5 
17/09/14  14:45   25.3   25.4   25.3    63   17.8  10.0   NNE   0.83  18.0   NNE   24.3   26.0   25.0  1008.2  0.00   0.0   0.000   0.024   28.5    51   17.4   29.3   9.28 1.1421    117    1    100.0    5 
17/09/14  14:50   25.2   25.3   25.2    64   17.9  10.0   NNE   0.83  18.0   NNE   24.1   25.8   24.8  1008.2  0.00   0.0   0.000   0.024   28.6    51   17.4   29.4   9.28 1.1417    116    1    100.0    5 
17/09/14  14:55   25.0   25.2   25.0    64   17.7  11.0   NNE   0.92  17.0    NE   23.7   25.7   24.4  1008.2  0.00   0.0   0.000   0.023   28.6    51   17.5   29.5   9.28 1.1414    116    1    100.0    5 
17/09/14  15:00   24.7   25.0   24.7    65   17.7  10.0   NNE   0.83  17.0   NNE   23.7   25.4   24.4  1008.1  0.00   0.0   0.000   0.022   28.7    51   17.5   29.6   9.28 1.1411    116    1    100.0    5 
17/09/14  15:05   24.9   24.9   24.7    66   18.2   8.0    NE   0.67  15.0   NNE   24.7   25.7   25.4  1008.1  0.00   0.0   0.000   0.023   28.7    50   17.3   29.6   9.08 1.1413    115    1    100.0    5 
17/09/14  15:10   25.5   25.5   24.9    65   18.4   8.0    NE   0.67  18.0   NNE   25.2   26.3   26.0  1008.0  0.00   0.0   0.000   0.025   28.8    50   17.3   29.7   9.07 1.1409    117    1    100.0    5 
17/09/14  15:15   25.6   25.7   25.6    63   18.0  11.0    NE   0.92  17.0   NNE   24.4   26.3   25.1  1008.0  0.00   0.0   0.000   0.025   28.8    50   17.4   29.8   9.07 1.1406    117    1    100.0    5 
17/09/14  15:20   25.4   25.6   25.4    64   18.1   9.0    NE   0.75  16.0   NNE   24.7   26.1   25.4  1008.0  0.00   0.0   0.000   0.024   28.9    50   17.4   29.9   9.07 1.1403    117    1    100.0    5 
17/09/14  15:25   25.3   25.4   25.2    64   18.0  11.0   NNE   0.92  18.0   NNE   24.1   26.0   24.8  1008.0  0.00   0.0   0.000   0.024   28.9    50   17.5   29.9   9.07 1.1400    117    1    100.0    5 
17/09/14  15:30   25.2   25.3   25.2    64   17.9  10.0   NNE   0.83  16.0     N   24.1   25.8   24.8  1008.0  0.00   0.0   0.000   0.024   29.0    50   17.5   30.0   9.07 1.1397    117    1    100.0    5 
17/09/14  15:35   25.3   25.3   25.2    66   18.5   7.0   NNE   0.58  16.0   NNE   25.3   26.1   26.1  1008.0  0.00   0.0   0.000   0.024   29.1    50   17.6   30.1   9.06 1.1395    117    1    100.0    5 
17/09/14  15:40   25.2   25.3   25.2    65   18.2  11.0   NNE   0.92  19.0   NNE   23.9   25.9   24.7  1008.0  0.00   0.0   0.000   0.024   29.1    50   17.6   30.1   9.06 1.1392    117    1    100.0    5 
17/09/14  15:45   25.2   25.2   25.2    64   17.9  10.0   NNE   0.83  17.0    NE   24.1   25.8   24.8  1008.0  0.00   0.0   0.000   0.024   29.1    50   17.6   30.1   9.06 1.1392    117    1    100.0    5 
17/09/14  15:50   25.0   25.2   25.0    65   18.0   9.0   NNE   0.75  15.0   NNE   24.3   25.7   25.1  1008.1  0.00   0.0   0.000   0.023   29.2    50   17.7   30.2   9.06 1.1389    117    1    100.0    5 
17/09/14  15:55   24.7   25.0   24.7    65   17.7  10.0   NNE   0.83  19.0   NNE   23.7   25.4   24.4  1008.0  0.00   0.0   0.000   0.022   29.2    50   17.7   30.2   9.06 1.1386    116    1    100.0    5 
17/09/14  16:00   24.3   24.7   24.3    66   17.6  10.0    NE   0.83  16.0    NE   23.3   25.1   24.0  1008.0  0.00   0.0   0.000   0.021   29.3    50   17.8   30.3   9.06 1.1383    116    1    100.0    5 
17/09/14  16:05   24.2   24.3   24.2    67   17.7  10.0   NNE   0.83  16.0     N   23.1   24.9   23.9  1008.0  0.00   0.0   0.000   0.020   29.3    50   17.8   30.3   9.06 1.1383    117    1    100.0    5 
17/09/14  16:10   24.1   24.2   24.0    68   17.8   9.0   NNE   0.75  17.0   NNE   23.3   24.9   24.2  1008.0  0.00   0.0   0.000   0.020   29.3    50   17.8   30.3   9.06 1.1383    117    1    100.0    5 
17/09/14  16:15   23.9   24.0   23.9    68   17.6  12.0   NNE   1.00  18.0     N   22.3   24.7   23.2  1007.9  0.00   0.0   0.000   0.019   29.3    49   17.5   30.2   8.86 1.1387    117    1    100.0    5 
17/09/14  16:20   24.2   24.2   23.9    69   18.1   7.0    NE   0.58  15.0   NNW   24.2   25.1   25.1  1007.9  0.00   0.0   0.000   0.020   29.3    49   17.5   30.2   8.86 1.1386    117    1    100.0    5 
17/09/14  16:25   24.6   24.6   24.2    68   18.3   9.0   NNE   0.75  16.0   ENE   23.8   25.4   24.7  1007.8  0.00   0.0   0.000   0.022   29.3    49   17.5   30.2   8.85 1.1383    116    1    100.0    5 
17/09/14  16:30   24.6   24.7   24.6    65   17.5  10.0   NNE   0.83  16.0   NNE   23.5   25.2   24.2  1007.9  0.00   0.0   0.000   0.022   29.3    49   17.5   30.2   8.85 1.1383    117    1    100.0    5 
17/09/14  16:35   24.3   24.6   24.3    66   17.5  11.0   NNE   0.92  20.0   NNE   23.0   25.0   23.7  1007.8  0.00   0.0   0.000   0.021   29.3    49   17.5   30.2   8.85 1.1383    117    1    100.0    5 
17/09/14  16:40   24.2   24.3   24.2    67   17.7   8.0   NNE   0.67  14.0   ENE   23.9   24.9   24.7  1007.8  0.00   0.0   0.000   0.020   29.3    49   17.5   30.2   8.85 1.1383    115    1    100.0    5 
17/09/14  16:45   23.9   24.2   23.9    67   17.4  11.0    NE   0.92  19.0   NNE   22.6   24.8   23.4  1007.7  0.00   0.0   0.000   0.019   29.3    49   17.5   30.2   8.85 1.1381    118    1    100.0    5 
17/09/14  16:50   23.9   23.9   23.9    68   17.7   8.0    NE   0.67  14.0   ENE   23.7   24.8   24.5  1007.7  0.00   0.0   0.000   0.019   29.4    49   17.6   30.3   8.85 1.1379    117    1    100.0    5 
17/09/14  16:55   23.8   23.9   23.8    68   17.6  10.0   NNE   0.83  18.0   ENE   22.7   24.7   23.6  1007.7  0.00   0.0   0.000   0.019   29.4    49   17.6   30.3   8.85 1.1379    117    1    100.0    5 
17/09/14  17:00   23.6   23.8   23.6    68   17.4  11.0   NNE   0.92  17.0   NNE   22.3   24.4   23.1  1007.7  0.00   0.0   0.000   0.018   29.4    49   17.6   30.3   8.85 1.1379    116    1    100.0    5 
17/09/14  17:05   23.6   23.6   23.6    70   17.8   8.0   NNE   0.67  16.0    NE   23.3   24.4   24.2  1007.7  0.00   0.0   0.000   0.018   29.3    49   17.5   30.2   8.85 1.1382    117    1    100.0    5 
17/09/14  17:10   23.6   23.6   23.6    69   17.5   9.0   NNE   0.75  16.0   NNE   22.8   24.4   23.7  1007.8  0.00   0.0   0.000   0.018   29.3    49   17.5   30.2   8.85 1.1383    114    1    100.0    5 
17/09/14  17:15   23.6   23.6   23.6    69   17.6  10.0    NE   0.83  19.0    NE   22.5   24.5   23.4  1007.8  0.00   0.0   0.000   0.018   29.3    49   17.5   30.2   8.85 1.1383    116    1    100.0    5 
17/09/14  17:20   23.6   23.7   23.6    68   17.3   9.0   NNE   0.75  17.0   NNE   22.8   24.4   23.7  1007.8  0.00   0.0   0.000   0.018   29.3    49   17.5   30.2   8.85 1.1383    116    1    100.0    5 
17/09/14  17:25   23.2   23.6   23.2    69   17.2   9.0   NNE   0.75  18.0   NNE   22.4   23.9   23.2  1007.9  0.00   0.0   0.000   0.017   29.3    49   17.5   30.2   8.85 1.1384    116    1    100.0    5 
17/09/14  17:30   22.9   23.2   22.9    70   17.2   9.0    NE   0.75  17.0    NE   22.2   23.7   22.9  1008.0  0.00   0.0   0.000   0.016   29.3    49   17.5   30.2   8.85 1.1384    116    1    100.0    5 
17/09/14  17:35   22.7   22.9   22.7    71   17.2  10.0   NNE   0.83  19.0   NNE   21.6   23.3   22.2  1008.0  0.00   0.0   0.000   0.015   29.3    49   17.5   30.2   8.85 1.1384    117    1    100.0    5 
17/09/14  17:40   22.5   22.7   22.5    71   17.0  11.0   NNE   0.92  18.0   NNE   21.1   23.1   21.7  1007.9  0.00   0.0   0.000   0.014   29.3    49   17.5   30.2   8.85 1.1384    117    1    100.0    5 
17/09/14  17:45   22.6   22.6   22.5    72   17.3   9.0   NNE   0.75  14.0   NNE   21.8   23.2   22.4  1007.9  0.00   0.0   0.000   0.015   29.3    49   17.5   30.2   8.85 1.1383    116    1    100.0    5 
17/09/14  17:50   22.6   22.7   22.6    71   17.1  10.0   NNE   0.83  16.0   NNE   21.4   23.2   22.1  1007.9  0.00   0.0   0.000   0.015   29.3    49   17.5   30.2   8.86 1.1386    118    1    100.0    5 
17/09/14  17:55   22.4   22.6   22.4    71   16.9  11.0   NNE   0.92  17.0    NE   21.0   22.9   21.5  1007.9  0.00   0.0   0.000   0.014   29.3    49   17.5   30.2   8.86 1.1387    117    1    100.0    5 
17/09/14  18:00   22.2   22.4   22.2    72   16.9  10.0   NNE   0.83  20.0   NNE   21.1   22.7   21.5  1008.0  0.00   0.0   0.000   0.014   29.2    49   17.4   30.1   8.86 1.1391    114    1    100.0    5 
17/09/14  18:05   22.1   22.2   22.1    73   17.0   8.0   NNE   0.67  15.0     N   21.8   22.5   22.2  1008.0  0.00   0.0   0.000   0.013   29.2    49   17.4   30.1   8.86 1.1391    117    1    100.0    5 
17/09/14  18:10   21.8   22.1   21.8    73   16.8  11.0   NNE   0.92  18.0   NNE   20.4   22.2   20.8  1008.1  0.00   0.0   0.000   0.012   29.2    49   17.4   30.1   8.86 1.1391    117    1    100.0    5 
17/09/14  18:15   21.6   21.8   21.6    73   16.5  10.0   NNE   0.83  18.0   ENE   20.4   21.9   20.7  1008.1  0.00   0.0   0.000   0.011   29.2    49   17.4   30.1   8.86 1.1395    117    1    100.0    5 
17/09/14  18:20   21.4   21.6   21.4    74   16.6   8.0   NNE   0.67  15.0    NE   21.1   21.7   21.4  1008.1  0.00   0.0   0.000   0.011   29.2    49   17.4   30.1   8.86 1.1394    117    1    100.0    5 
17/09/14  18:25   21.3   21.4   21.3    74   16.5  11.0   NNE   0.92  21.0   NNE   19.8   21.6   20.2  1008.0  0.00   0.0   0.000   0.010   29.1    49   17.3   30.1   8.86 1.1397    117    1    100.0    5 
17/09/14  18:30   21.1   21.3   21.1    75   16.5  10.0   NNE   0.83  20.0   NNE   19.9   21.4   20.3  1008.0  0.00   0.0   0.000   0.010   29.1    48   16.9   29.9   8.76 1.1404    117    1    100.0    5 
17/09/14  18:35   20.9   21.1   20.9    75   16.3   9.0   NNE   0.75  16.0   NNE   20.2   21.3   20.6  1008.0  0.00   0.0   0.000   0.009   29.0    49   17.2   29.9   8.87 1.1402    117    1    100.0    5 
17/09/14  18:40   20.8   20.9   20.8    75   16.2   9.0   NNE   0.75  16.0    NE   20.0   21.2   20.4  1008.1  0.00   0.0   0.000   0.008   29.0    49   17.2   29.9   8.87 1.1403    117    1    100.0    5 
17/09/14  18:45   20.6   20.8   20.6    76   16.2   9.0   NNE   0.75  17.0    NE   19.8   21.2   20.4  1008.1  0.00   0.0   0.000   0.008   29.0    49   17.2   29.9   8.87 1.1403    117    1    100.0    5 
17/09/14  18:50   20.4   20.6   20.4    76   16.0  12.0   NNE   1.00  20.0    NE   18.7   21.0   19.3  1008.1  0.00   0.0   0.000   0.007   28.9    49   17.2   29.9   8.87 1.1406    118    1    100.0    5 
17/09/14  18:55   20.2   20.4   20.2    76   15.9  10.0   NNE   0.83  17.0   NNE   19.1   20.8   19.6  1008.0  0.00   0.0   0.000   0.007   28.9    49   17.1   29.8   8.87 1.1408    117    1    100.0    5 
17/09/14  19:00   20.1   20.2   20.1    76   15.7  10.0   NNE   0.83  20.0   NNE   18.9   20.7   19.5  1008.0  0.00   0.0   0.000   0.006   28.8    49   17.1   29.7   8.87 1.1411    117    1    100.0    5 
17/09/14  19:05   19.9   20.1   19.9    77   15.8   9.0   NNE   0.75  16.0   NNE   19.2   20.5   19.7  1008.0  0.00   0.0   0.000   0.006   28.8    49   17.0   29.6   8.87 1.1414    116    1    100.0    5 
17/09/14  19:10   19.8   19.9   19.8    77   15.7  12.0   NNE   1.00  21.0   NNE   18.1   20.4   18.7  1008.0  0.00   0.0   0.000   0.005   28.7    49   17.0   29.6   8.88 1.1416    115    1    100.0    5 
17/09/14  19:15   19.7   19.8   19.7    77   15.6  11.0   NNE   0.92  17.0   NNE   18.3   20.3   18.8  1008.0  0.00   0.0   0.000   0.005   28.7    48   16.6   29.4   8.78 1.1424    116    1    100.0    5 
17/09/14  19:20   19.6   19.7   19.6    77   15.5  12.0   NNE   1.00  24.0   NNE   17.8   20.1   18.3  1008.0  0.00   0.0   0.000   0.004   28.6    48   16.5   29.3   8.78 1.1426    116    1    100.0    5 
17/09/14  19:25   19.5   19.6   19.5    78   15.6  13.0   NNE   1.08  22.0    NE   17.4   20.1   18.0  1007.9  0.00   0.0   0.000   0.004   28.5    48   16.4   29.1   8.78 1.1431    116    1    100.0    5 
17/09/14  19:30   19.4   19.5   19.4    78   15.5  11.0   NNE   0.92  20.0   NNE   17.9   19.9   18.4  1008.0  0.00   0.0   0.000   0.004   28.4    48   16.4   29.0   8.79 1.1434    117    1    100.0    5 
17/09/14  19:35   19.3   19.4   19.3    78   15.4  10.0   NNE   0.83  16.0   NNE   18.2   19.8   18.7  1007.9  0.00   0.0   0.000   0.003   28.4    49   16.6   29.0   8.89 1.1432    116    1    100.0    5 
17/09/14  19:40   19.3   19.3   19.3    79   15.5  11.0   NNE   0.92  21.0   NNE   17.8   19.8   18.4  1008.0  0.00   0.0   0.000   0.003   28.3    49   16.6   28.9   8.89 1.1435    117    1    100.0    5 
17/09/14  19:45   19.2   19.3   19.2    79   15.4  12.0   NNE   1.00  17.0   NNE   17.3   19.7   17.8  1008.0  0.00   0.0   0.000   0.003   28.3    49   16.5   28.8   8.89 1.1438    116    1    100.0    5 
17/09/14  19:50   19.1   19.2   19.1    80   15.5  13.0   NNE   1.08  19.0   NNE   16.9   19.6   17.5  1008.0  0.00   0.0   0.000   0.003   28.2    49   16.4   28.7   8.90 1.1444    117    1    100.0    5 
17/09/14  19:55   19.0   19.1   19.0    80   15.5  13.0   NNE   1.08  22.0   NNE   16.8   19.5   17.3  1007.9  0.00   0.0   0.000   0.002   28.1    50   16.7   28.7   9.10 1.1441    117    1    100.0    5 
17/09/14  20:00   18.9   19.0   18.9    80   15.4  14.0   NNE   1.17  21.0   NNE   16.6   19.4   17.1  1008.0  0.00   0.0   0.000   0.002   28.1    50   16.7   28.6   9.10 1.1445    115    1    100.0    5 
17/09/14  20:05   18.9   18.9   18.9    81   15.6  11.0   NNE   0.92  21.0   NNE   17.4   19.4   17.9  1008.0  0.00   0.0   0.000   0.002   28.0    50   16.6   28.4   9.10 1.1448    116    1    100.0    5 
17/09/14  20:10   18.8   18.9   18.8    81   15.5  13.0   NNE   1.08  21.0   NNE   16.7   19.3   17.2  1007.9  0.00   0.0   0.000   0.002   27.9    50   16.6   28.4   9.10 1.1450    117    1    100.0    5 
17/09/14  20:15   18.8   18.8   18.8    81   15.4  13.0   NNE   1.08  21.0    NE   16.6   19.3   17.1  1008.0  0.00   0.0   0.000   0.002   27.9    50   16.5   28.3   9.11 1.1453    117    1    100.0    5 
17/09/14  20:20   18.7   18.8   18.7    82   15.6  13.0   NNE   1.08  20.0    NE   16.6   19.2   17.1  1007.9  0.00   0.0   0.000   0.001   27.8    50   16.5   28.2   9.11 1.1456    116    1    100.0    5 
17/09/14  20:25   18.7   18.7   18.7    82   15.5  13.0   NNE   1.08  25.0   NNE   16.5   19.2   17.0  1008.0  0.00   0.0   0.000   0.001   27.8    50   16.4   28.1   9.11 1.1460    117    1    100.0    5 
17/09/14  20:30   18.7   18.7   18.7    82   15.5  11.0   NNE   0.92  20.0    NE   17.1   19.2   17.6  1008.0  0.00   0.0   0.000   0.001   27.7    50   16.4   28.1   9.11 1.1462    117    1    100.0    5 
17/09/14  20:35   18.6   18.7   18.6    82   15.5  12.0   NNE   1.00  19.0    NE   16.7   19.1   17.2  1007.9  0.00   0.0   0.000   0.001   27.7    50   16.3   27.9   9.11 1.1464    116    1    100.0    5 
17/09/14  20:40   18.6   18.6   18.6    83   15.6  13.0   NNE   1.08  23.0   NNE   16.3   19.0   16.8  1008.0  0.00   0.0   0.000   0.001   27.6    50   16.2   27.9   9.12 1.1468    117    1    100.0    5 
17/09/14  20:45   18.6   18.6   18.6    83   15.6  13.0   NNE   1.08  19.0   NNE   16.3   19.0   16.8  1008.0  0.00   0.0   0.000   0.001   27.6    51   16.5   27.9   9.32 1.1466    117    1    100.0    5 
17/09/14  20:50   18.5   18.6   18.5    83   15.6  12.0   NNE   1.00  19.0   NNE   16.6   18.9   17.0  1008.1  0.00   0.0   0.000   0.001   27.5    51   16.5   27.8   9.32 1.1470    117    1    100.0    5 
17/09/14  20:55   18.4   18.5   18.4    83   15.5  12.0   NNE   1.00  20.0   NNE   16.5   18.9   16.9  1008.0  0.00   0.0   0.000   0.000   27.4    51   16.4   27.7   9.32 1.1472    116    1    100.0    5 
17/09/14  21:00   18.4   18.4   18.4    84   15.7  15.0   NNE   1.25  22.0   NNE   15.8   18.9   16.2  1008.1  0.00   0.0   0.000   0.000   27.4    51   16.4   27.7   9.32 1.1473    117    1    100.0    5 
17/09/14  21:05   18.4   18.4   18.4    84   15.6  12.0   NNE   1.00  19.0    NE   16.4   18.8   16.9  1008.1  0.00   0.0   0.000   0.000   27.4    51   16.4   27.7   9.32 1.1476    117    1    100.0    5 
17/09/14  21:10   18.3   18.4   18.3    83   15.4  12.0   NNE   1.00  21.0    NE   16.4   18.8   16.8  1008.0  0.00   0.0   0.000   0.000   27.3    51   16.3   27.6   9.33 1.1478    117    1    100.0    5 
17/09/14  21:15   18.3   18.3   18.3    84   15.6  12.0   NNE   1.00  19.0   NNE   16.4   18.8   16.8  1008.0  0.00   0.0   0.000   0.000   27.3    51   16.3   27.5   9.33 1.1480    117    1    100.0    5 
17/09/14  21:20   18.3   18.3   18.3    84   15.5  11.0   NNE   0.92  19.0   NNE   16.7   18.7   17.1  1008.0  0.00   0.0   0.000   0.000   27.2    51   16.2   27.4   9.33 1.1484    117    1    100.0    5 
17/09/14  21:25   18.3   18.3   18.3    84   15.5  11.0   NNE   0.92  15.0   NNE   16.7   18.7   17.1  1008.0  0.00   0.0   0.000   0.000   27.2    51   16.2   27.4   9.33 1.1484    116    1    100.0    5 
17/09/14  21:30   18.2   18.3   18.2    84   15.5  12.0   NNE   1.00  17.0   NNE   16.3   18.6   16.7  1008.1  0.00   0.0   0.000   0.000   27.2    51   16.2   27.3   9.33 1.1487    117    1    100.0    5 
17/09/14  21:35   18.2   18.2   18.2    84   15.4  10.0   NNE   0.83  18.0   NNE   16.9   18.6   17.3  1008.0  0.00   0.0   0.001   0.000   27.1    51   16.1   27.3   9.33 1.1489    116    1    100.0    5 
17/09/14  21:40   18.1   18.2   18.1    85   15.5  10.0   NNE   0.83  17.0    NE   16.8   18.5   17.2  1008.0  0.00   0.0   0.001   0.000   27.1    51   16.1   27.2   9.34 1.1492    117    1    100.0    5 
17/09/14  21:45   18.1   18.1   18.1    85   15.5  11.0   NNE   0.92  17.0   NNE   16.4   18.4   16.8  1008.0  0.00   0.0   0.001   0.000   27.1    51   16.1   27.2   9.34 1.1492    117    1    100.0    5 
17/09/14  21:50   18.0   18.1   18.0    85   15.4   9.0   NNE   0.75  14.0    NE   17.2   18.4   17.6  1008.1  0.00   0.0   0.001   0.000   27.0    51   16.0   27.2   9.34 1.1495    117    1    100.0    5 
17/09/14  21:55   17.9   18.0   17.9    85   15.4   9.0   NNE   0.75  15.0   NNE   17.1   18.3   17.5  1008.0  0.00   0.0   0.001   0.000   27.0    52   16.3   27.2   9.44 1.1490    117    1    100.0    5 
17/09/14  22:00   17.9   17.9   17.9    85   15.4  11.0   NNE   0.92  16.0   NNE   16.3   18.3   16.7  1007.9  0.00   0.0   0.001   0.000   27.0    52   16.3   27.2   9.44 1.1490    116    1    100.0    5 
17/09/14  22:05   17.9   17.9   17.9    85   15.3   9.0   NNE   0.75  14.0    NE   17.0   18.2   17.3  1007.9  0.00   0.0   0.002   0.000   27.0    52   16.3   27.2   9.44 1.1490    117    1    100.0    5 
17/09/14  22:10   17.9   17.9   17.9    85   15.3  11.0   NNE   0.92  17.0   NNE   16.2   18.2   16.5  1008.0  0.00   0.0   0.002   0.000   27.0    52   16.3   27.2   9.44 1.1490    116    1    100.0    5 
17/09/14  22:15   17.9   17.9   17.9    85   15.3  10.0   NNE   0.83  17.0   NNE   16.6   18.2   16.9  1008.0  0.00   0.0   0.002   0.000   27.0    52   16.3   27.2   9.44 1.1490    117    1    100.0    5 
17/09/14  22:20   17.9   17.9   17.9    85   15.4  10.0   NNE   0.83  16.0    NE   16.7   18.3   17.1  1008.1  0.00   0.0   0.001   0.000   27.0    51   16.0   27.2   9.34 1.1496    117    1    100.0    5 
17/09/14  22:25   17.9   17.9   17.9    85   15.4   9.0   NNE   0.75  15.0    NE   17.1   18.3   17.5  1008.0  0.00   0.0   0.001   0.000   26.9    51   15.9   27.1   9.34 1.1497    117    1    100.0    5 
17/09/14  22:30   17.9   17.9   17.9    85   15.4  10.0   NNE   0.83  19.0   NNE   16.7   18.3   17.1  1008.0  0.00   0.0   0.001   0.000   26.9    51   15.9   27.1   9.34 1.1497    116    1    100.0    5 
17/09/14  22:35   18.0   18.0   17.9    85   15.4  10.0   NNE   0.83  15.0    NE   16.7   18.4   17.1  1008.0  0.00   0.0   0.001   0.000   26.9    51   15.9   27.1   9.34 1.1497    116    1    100.0    5 
17/09/14  22:40   18.1   18.1   18.0    85   15.5   9.0   NNE   0.75  15.0   NNE   17.2   18.4   17.6  1008.0  0.00   0.0   0.001   0.000   27.0    51   16.0   27.2   9.34 1.1495    116    1    100.0    5 
17/09/14  22:45   18.1   18.1   18.0    85   15.5  10.0   NNE   0.83  16.0   NNE   16.8   18.4   17.2  1008.0  0.00   0.0   0.001   0.000   27.1    51   16.1   27.2   9.34 1.1492    117    1    100.0    5 
17/09/14  22:50   18.1   18.1   18.1    85   15.5  10.0   NNE   0.83  17.0    NE   16.8   18.5   17.2  1008.1  0.00   0.0   0.001   0.000   27.0    51   16.0   27.2   9.34 1.1495    116    1    100.0    5 
17/09/14  22:55   18.2   18.2   18.1    85   15.6   8.0   NNE   0.67  13.0   NNE   17.8   18.6   18.2  1008.1  0.00   0.0   0.001   0.000   27.1    52   16.4   27.3   9.44 1.1488    117    1    100.0    5 
17/09/14  23:00   18.2   18.2   18.1    85   15.6   8.0   NNE   0.67  13.0    NE   17.8   18.6   18.2  1008.0  0.00   0.0   0.001   0.000   27.1    52   16.4   27.4   9.43 1.1485    116    1    100.0    5 
17/09/14  23:05   18.2   18.2   18.2    85   15.6   9.0   NNE   0.75  14.0   NNE   17.3   18.6   17.7  1007.9  0.00   0.0   0.001   0.000   27.2    52   16.5   27.4   9.43 1.1481    116    1    100.0    5 
17/09/14  23:10   18.2   18.2   18.2    84   15.5   9.0   NNE   0.75  13.0   NNE   17.4   18.6   17.8  1007.9  0.00   0.0   0.000   0.000   27.2    52   16.5   27.5   9.43 1.1478    117    1    100.0    5 
17/09/14  23:15   18.3   18.3   18.2    84   15.5   9.0   NNE   0.75  15.0    NE   17.5   18.7   17.9  1008.0  0.00   0.0   0.000   0.000   27.2    52   16.5   27.5   9.43 1.1479    116    1    100.0    5 
17/09/14  23:20   18.3   18.3   18.3    84   15.6   8.0   NNE   0.67  15.0   NNE   18.0   18.8   18.4  1008.0  0.00   0.0   0.000   0.000   27.3    52   16.6   27.6   9.43 1.1476    117    1    100.0    5 
17/09/14  23:25   18.4   18.4   18.3    84   15.6  10.0   NNE   0.83  16.0   NNE   17.2   18.8   17.6  1008.1  0.00   0.0   0.000   0.000   27.3    52   16.6   27.7   9.43 1.1474    117    1    100.0    5 
17/09/14  23:30   18.4   18.4   18.4    83   15.4  10.0   NNE   0.83  16.0   NNE   17.2   18.8   17.6  1008.0  0.00   0.0   0.000   0.000   27.4    52   16.7   27.7   9.42 1.1471    117    1    100.0    5 
17/09/14  23:35   18.4   18.4   18.4    83   15.4  10.0   NNE   0.83  19.0   NNE   17.2   18.8   17.6  1007.9  0.00   0.0   0.000   0.000   27.4    52   16.7   27.7   9.42 1.1470    117    1    100.0    5 
17/09/14  23:40   18.3   18.4   18.3    83   15.4  11.0   NNE   0.92  19.0    NE   16.7   18.8   17.2  1007.8  0.00   0.0   0.000   0.000   27.4    52   16.7   27.8   9.42 1.1466    117    1    100.0    5 
17/09/14  23:45   18.2   18.3   18.2    83   15.3  10.0   NNE   0.83  15.0   NNE   17.0   18.6   17.4  1007.8  0.00   0.0   0.000   0.000   27.5    51   16.5   27.8   9.32 1.1466    117    1    100.0    5 
17/09/14  23:50   18.2   18.2   18.2    84   15.4  10.0   NNE   0.83  15.0   NNE   16.9   18.6   17.3  1007.8  0.00   0.0   0.001   0.000   27.5    51   16.5   27.8   9.32 1.1467    117    1    100.0    5 
17/09/14  23:55   18.1   18.2   18.1    84   15.3  11.0   NNE   0.92  17.0   NNE   16.4   18.4   16.8  1007.8  0.00   0.0   0.001   0.000   27.5    51   16.5   27.8   9.32 1.1467    116    1    100.0    5 
18/09/14  00:00   18.0   18.1   18.0    84   15.3   9.0   NNE   0.75  15.0   NNE   17.2   18.4   17.6  1007.8  0.00   0.0   0.001   0.000   27.6    51   16.5   27.9   9.32 1.1464    117    1    100.0    5 
18/09/14   0:05   17.9   18.0   17.9    84   15.2  11.0   NNE   0.92  16.0   NNE   16.3   18.3   16.6  1007.7  0.00   0.0   0.001   0.000   27.6    51   16.5   27.9   9.32 1.1463    115    1    100.0    5 
18/09/14   0:10   17.9   17.9   17.9    84   15.1  10.0   NNE   0.83  16.0   NNE   16.6   18.2   16.9  1007.8  0.00   0.0   0.002   0.000   27.6    51   16.6   27.9   9.32 1.1461    117    1    100.0    5 
18/09/14   0:15   17.9   17.9   17.9    85   15.3   9.0   NNE   0.75  15.0   NNE   17.0   18.2   17.3  1007.7  0.00   0.0   0.002   0.000   27.6    51   16.6   27.9   9.32 1.1460    116    1    100.0    5 
18/09/14   0:20   17.8   17.9   17.8    85   15.3  10.0   NNE   0.83  14.0   NNE   16.5   18.2   16.8  1007.7  0.00   0.0   0.002   0.000   27.6    51   16.6   27.9   9.32 1.1460    117    1    100.0    5 
18/09/14   0:25   17.8   17.9   17.8    85   15.3   9.0   NNE   0.75  15.0    NE   16.9   18.2   17.3  1007.7  0.00   0.0   0.002   0.000   27.6    51   16.6   27.9   9.32 1.1460    115    1    100.0    5 
18/09/14   0:30   17.9   17.9   17.8    85   15.3   8.0   NNE   0.67  16.0   NNE   17.4   18.2   17.8  1007.6  0.00   0.0   0.002   0.000   27.6    51   16.6   27.9   9.32 1.1459    117    1    100.0    5 
18/09/14   0:35   17.8   17.9   17.8    85   15.3   8.0   NNE   0.67  14.0   NNE   17.4   18.2   17.7  1007.6  0.00   0.0   0.002   0.000   27.7    51   16.6   28.1   9.31 1.1456    117    1    100.0    5 
18/09/14   0:40   17.8   17.8   17.8    85   15.3  10.0   NNE   0.83  16.0   NNE   16.5   18.2   16.8  1007.6  0.00   0.0   0.002   0.000   27.7    51   16.6   28.1   9.31 1.1456    116    1    100.0    5 
18/09/14   0:45   17.8   17.8   17.8    85   15.2   8.0   NNE   0.67  16.0   NNE   17.3   18.1   17.7  1007.5  0.00   0.0   0.002   0.000   27.7    51   16.6   28.1   9.31 1.1455    117    1    100.0    5 
18/09/14   0:50   17.8   17.8   17.8    85   15.2   9.0   NNE   0.75  14.0    NE   16.9   18.1   17.2  1007.5  0.00   0.0   0.002   0.000   27.7    51   16.6   28.1   9.31 1.1455    117    1    100.0    5 
18/09/14   0:55   17.8   17.8   17.8    85   15.2   9.0   NNE   0.75  13.0    NE   16.9   18.1   17.2  1007.4  0.00   0.0   0.002   0.000   27.7    50   16.4   28.1   9.11 1.1455    117    1    100.0    5 
18/09/14   1:00   17.8   17.8   17.8    86   15.4  11.0   NNE   0.92  17.0   NNE   16.1   18.1   16.4  1007.4  0.00   0.0   0.002   0.000   27.7    50   16.4   28.1   9.11 1.1455    116    1    100.0    5 
18/09/14   1:05   17.8   17.8   17.8    86   15.4  10.0   NNE   0.83  17.0   NNE   16.4   18.1   16.8  1007.3  0.00   0.0   0.002   0.000   27.7    50   16.4   28.1   9.11 1.1454    117    1    100.0    5 
18/09/14   1:10   17.7   17.8   17.7    86   15.3  10.0   NNE   0.83  15.0    NE   16.4   18.1   16.7  1007.3  0.00   0.0   0.002   0.000   27.7    50   16.4   28.1   9.11 1.1454    117    1    100.0    5 
18/09/14   1:15   17.7   17.7   17.7    86   15.3  10.0   NNE   0.83  16.0   NNE   16.3   18.0   16.7  1007.3  0.00   0.0   0.002   0.000   27.7    50   16.4   28.1   9.11 1.1454    117    1    100.0    5 
18/09/14   1:20   17.7   17.7   17.7    86   15.3  11.0   NNE   0.92  17.0   NNE   15.9   18.0   16.3  1007.4  0.00   0.0   0.002   0.000   27.7    50   16.4   28.1   9.11 1.1455    117    1    100.0    5 
18/09/14   1:25   17.6   17.7   17.6    86   15.2  10.0   NNE   0.83  15.0   NNE   16.3   17.9   16.6  1007.4  0.00   0.0   0.003   0.000   27.7    50   16.4   28.1   9.11 1.1455    117    1    100.0    5 
18/09/14   1:30   17.6   17.6   17.6    86   15.2  11.0   NNE   0.92  16.0   NNE   15.9   17.9   16.2  1007.4  0.00   0.0   0.003   0.000   27.7    50   16.4   28.1   9.11 1.1455    117    1    100.0    5 
18/09/14   1:35   17.6   17.6   17.6    87   15.4  10.0   NNE   0.83  14.0   NNE   16.3   17.9   16.6  1007.4  0.00   0.0   0.003   0.000   27.7    50   16.4   28.1   9.11 1.1455    116    1    100.0    5 
18/09/14   1:40   17.6   17.6   17.6    87   15.4  10.0   NNE   0.83  15.0    NE   16.2   17.9   16.6  1007.4  0.00   0.0   0.003   0.000   27.7    50   16.4   28.1   9.11 1.1455    117    1    100.0    5 
18/09/14   1:45   17.6   17.6   17.6    87   15.4   9.0   NNE   0.75  15.0    NE   16.6   17.9   16.9  1007.4  0.00   0.0   0.003   0.000   27.8    50   16.4   28.1   9.11 1.1453    115    1    100.0    5 
18/09/14   1:50   17.6   17.6   17.6    87   15.4   9.0   NNE   0.75  14.0   NNE   16.6   17.9   16.9  1007.4  0.00   0.0   0.003   0.000   27.7    50   16.4   28.1   9.11 1.1455    117    1    100.0    5 
18/09/14   1:55   17.6   17.6   17.6    87   15.4   8.0   NNE   0.67  15.0   NNE   17.2   17.9   17.5  1007.3  0.00   0.0   0.003   0.000   27.7    50   16.4   28.1   9.11 1.1454    117    1    100.0    5 
18/09/14   2:00   17.6   17.6   17.6    87   15.4   9.0   NNE   0.75  14.0    NE   16.7   17.9   17.0  1007.3  0.00   0.0   0.003   0.000   27.8    50   16.4   28.1   9.11 1.1451    116    1    100.0    5 
18/09/14   2:05   17.7   17.7   17.6    87   15.5   8.0   NNE   0.67  16.0   NNE   17.2   18.1   17.6  1007.2  0.00   0.0   0.002   0.000   27.7    50   16.4   28.1   9.11 1.1453    115    1    100.0    5 
18/09/14   2:10   17.7   17.7   17.6    87   15.5   9.0   NNE   0.75  14.0   NNE   16.8   18.1   17.2  1007.2  0.00   0.0   0.002   0.000   27.7    50   16.4   28.1   9.11 1.1453    117    1    100.0    5 
18/09/14   2:15   17.7   17.7   17.7    87   15.5   8.0   NNE   0.67  15.0   NNE   17.2   18.1   17.6  1007.1  0.00   0.0   0.002   0.000   27.7    50   16.4   28.1   9.11 1.1452    117    1    100.0    5 
18/09/14   2:20   17.7   17.7   17.7    87   15.5   9.0   NNE   0.75  15.0     N   16.8   18.1   17.2  1007.1  0.00   0.0   0.002   0.000   27.7    50   16.4   28.1   9.11 1.1452    117    1    100.0    5 
18/09/14   2:25   17.7   17.7   17.7    87   15.5   9.0   NNE   0.75  15.0   NNE   16.8   18.1   17.2  1007.1  0.00   0.0   0.002   0.000   27.7    50   16.4   28.1   9.11 1.1452    117    1    100.0    5 
18/09/14   2:30   17.7   17.7   17.7    87   15.5   9.0   NNE   0.75  15.0   NNE   16.8   18.1   17.2  1007.0  0.00   0.0   0.002   0.000   27.7    50   16.4   28.1   9.11 1.1451    115    1    100.0    5 
66128